createdAt,value
2019-05-03T00:00:02.988Z,8.71
2019-05-03T00:01:03.622Z,9.84
2019-05-03T00:02:02.737Z,8.61
2019-05-03T00:03:03.734Z,9.84
2019-05-03T00:04:02.739Z,10.51
2019-05-03T00:05:03.760Z,7.49
2019-05-03T00:06:03.645Z,9.05
2019-05-03T00:07:03.721Z,9.05
2019-05-03T00:08:03.583Z,8.02
2019-05-03T00:09:03.571Z,9.84
2019-05-03T00:10:03.606Z,10.43
2019-05-03T00:11:02.883Z,8.15
2019-05-03T00:12:03.319Z,8.24
2019-05-03T00:13:04.098Z,8.76
2019-05-03T00:14:03.293Z,8.94
2019-05-03T00:15:03.139Z,11.73
2019-05-03T00:16:03.797Z,7.48
2019-05-03T00:17:03.297Z,9.21
2019-05-03T00:18:03.415Z,8.21
2019-05-03T00:19:03.345Z,9.08
2019-05-03T00:20:03.051Z,10.21
2019-05-03T00:21:03.272Z,10.21
2019-05-03T00:22:03.050Z,7.48
2019-05-03T00:23:03.086Z,11.18
2019-05-03T00:24:03.210Z,11.18
2019-05-03T00:25:07.617Z,8.55
2019-05-03T00:26:02.613Z,9.85
2019-05-03T00:27:02.817Z,9.85
2019-05-03T00:28:02.751Z,6.73
2019-05-03T00:29:02.634Z,7.83
2019-05-03T00:30:03.039Z,7.23
2019-05-03T00:31:02.843Z,8.52
2019-05-03T00:32:02.997Z,7.41
2019-05-03T00:33:02.944Z,8.65
2019-05-03T00:34:02.834Z,7.14
2019-05-03T00:35:03.734Z,8.85
2019-05-03T00:36:03.186Z,7.93
2019-05-03T00:37:03.167Z,12.05
2019-05-03T00:38:03.456Z,7.28
2019-05-03T00:39:03.260Z,9.48
2019-05-03T00:40:03.636Z,6.64
2019-05-03T00:41:03.548Z,7.44
2019-05-03T00:42:03.057Z,9.95
2019-05-03T00:43:03.169Z,6.43
2019-05-03T00:44:03.155Z,7.4
2019-05-03T00:45:03.314Z,5.86
2019-05-03T00:46:03.113Z,6.02
2019-05-03T00:47:02.897Z,5.41
2019-05-03T00:48:03.085Z,5.8
2019-05-03T00:49:03.765Z,6.71
2019-05-03T00:50:03.010Z,5.69
2019-05-03T00:51:02.883Z,6.75
2019-05-03T00:52:03.049Z,5.08
2019-05-03T00:53:02.596Z,9
2019-05-03T00:54:04.016Z,9.36
2019-05-03T00:55:15.208Z,6.21
2019-05-03T00:56:03.482Z,5.56
2019-05-03T00:57:03.561Z,8.24
2019-05-03T00:58:03.624Z,9.88
2019-05-03T00:59:02.695Z,6.01
2019-05-03T01:00:03.278Z,5.31
2019-05-03T01:01:03.510Z,5.72
2019-05-03T01:02:03.655Z,5.39
2019-05-03T01:03:03.401Z,7.08
2019-05-03T01:04:03.461Z,5.25
2019-05-03T01:05:03.570Z,5.06
2019-05-03T01:06:03.474Z,4.98
2019-05-03T01:07:03.143Z,5.41
2019-05-03T01:08:03.400Z,5.44
2019-05-03T01:09:03.095Z,6.53
2019-05-03T01:10:03.179Z,4.35
2019-05-03T01:11:03.117Z,4.91
2019-05-03T01:12:03.220Z,4.91
2019-05-03T01:13:02.919Z,7.14
2019-05-03T01:14:03.264Z,4.15
2019-05-03T01:15:03.157Z,4.15
2019-05-03T01:16:02.954Z,5.46
2019-05-03T01:17:03.131Z,5.29
2019-05-03T01:18:02.625Z,7.31
2019-05-03T01:19:03.187Z,6.28
2019-05-03T01:20:03.065Z,8.29
2019-05-03T01:21:02.868Z,6.06
2019-05-03T01:22:03.625Z,6.22
2019-05-03T01:23:03.104Z,7.24
2019-05-03T01:24:03.713Z,6.61
2019-05-03T01:25:03.116Z,6.06
2019-05-03T01:26:02.686Z,5.23
2019-05-03T01:27:02.649Z,4.51
2019-05-03T01:28:03.716Z,4.59
2019-05-03T01:29:03.513Z,5.57
2019-05-03T01:30:03.627Z,4.85
2019-05-03T01:31:03.300Z,4.42
2019-05-03T01:32:03.316Z,4.74
2019-05-03T01:33:03.216Z,5.68
2019-05-03T01:34:03.671Z,5.34
2019-05-03T01:35:03.477Z,6.13
2019-05-03T01:36:03.448Z,3.87
2019-05-03T01:37:03.155Z,3.48
2019-05-03T01:38:03.339Z,3.42
2019-05-03T01:39:03.126Z,5.45
2019-05-03T01:40:03.302Z,4.06
2019-05-03T01:41:03.198Z,5.43
2019-05-03T01:42:02.867Z,3.92
2019-05-03T01:43:03.224Z,3.55
2019-05-03T01:44:02.972Z,3.7
2019-05-03T01:45:02.942Z,4.49
2019-05-03T01:46:02.943Z,3.95
2019-05-03T01:47:02.957Z,3.18
2019-05-03T01:48:02.852Z,6.85
2019-05-03T01:49:02.858Z,6.68
2019-05-03T01:50:03.053Z,2.99
2019-05-03T01:51:02.921Z,4.75
2019-05-03T01:52:03.502Z,3.66
2019-05-03T01:53:03.012Z,3.44
2019-05-03T01:54:02.885Z,3.25
2019-05-03T01:55:03.866Z,3.22
2019-05-03T01:56:03.622Z,3.45
2019-05-03T01:57:03.685Z,2.55
2019-05-03T01:58:02.865Z,7.15
2019-05-03T01:59:03.376Z,3.82
2019-05-03T02:00:03.685Z,2.76
2019-05-03T02:01:03.541Z,2.99
2019-05-03T02:02:03.212Z,3.58
2019-05-03T02:03:03.594Z,3.58
2019-05-03T02:04:03.463Z,3.26
2019-05-03T02:05:03.701Z,3.26
2019-05-03T02:06:03.478Z,3.41
2019-05-03T02:07:03.548Z,3.21
2019-05-03T02:08:03.409Z,4.28
2019-05-03T02:09:03.311Z,4.26
2019-05-03T02:10:03.377Z,3.31
2019-05-03T02:11:03.411Z,3.92
2019-05-03T02:12:03.026Z,5.11
2019-05-03T02:13:03.000Z,4.58
2019-05-03T02:14:03.115Z,4.96
2019-05-03T02:15:03.042Z,3.92
2019-05-03T02:16:02.815Z,5.55
2019-05-03T02:17:03.168Z,4.86
2019-05-03T02:18:02.955Z,4.72
2019-05-03T02:19:02.942Z,7.09
2019-05-03T02:20:03.121Z,7.6
2019-05-03T02:21:02.812Z,4.54
2019-05-03T02:22:02.983Z,5.24
2019-05-03T02:23:03.827Z,6.92
2019-05-03T02:24:02.767Z,7.06
2019-05-03T02:25:02.474Z,10.83
2019-05-03T02:26:03.188Z,6.06
2019-05-03T02:27:03.841Z,6.11
2019-05-03T02:28:02.652Z,5.44
2019-05-03T02:29:03.100Z,5.51
2019-05-03T02:30:03.459Z,9.55
2019-05-03T02:31:03.866Z,6.34
2019-05-03T02:32:03.664Z,8.6
2019-05-03T02:33:04.222Z,4.74
2019-05-03T02:34:03.764Z,5.19
2019-05-03T02:35:03.857Z,5.28
2019-05-03T02:36:04.022Z,6.26
2019-05-03T02:37:03.449Z,6.71
2019-05-03T02:38:03.653Z,12.28
2019-05-03T02:39:03.399Z,6.99
2019-05-03T02:40:04.134Z,5.91
2019-05-03T02:41:03.241Z,6.56
2019-05-03T02:42:10.258Z,5.88
2019-05-03T02:43:05.422Z,4.62
2019-05-03T02:44:06.121Z,5.7
2019-05-03T02:45:05.898Z,5.84
2019-05-03T02:46:05.629Z,5.08
2019-05-03T02:47:05.330Z,6.38
2019-05-03T02:48:02.856Z,6.55
2019-05-03T02:49:06.138Z,6.55
2019-05-03T02:50:05.652Z,6.55
2019-05-03T02:51:02.877Z,6.44
2019-05-03T02:52:06.345Z,6.44
2019-05-03T02:53:05.732Z,5.34
2019-05-03T02:54:05.402Z,5.98
2019-05-03T02:55:02.832Z,5.98
2019-05-03T02:56:14.831Z,6.08
2019-05-03T02:57:02.746Z,7.15
2019-05-03T02:58:05.566Z,6.18
2019-05-03T02:59:05.995Z,6.04
2019-05-03T03:00:05.007Z,5.59
2019-05-03T03:01:06.123Z,7.14
2019-05-03T03:02:06.103Z,6.94
2019-05-03T03:03:05.469Z,6.58
2019-05-03T03:04:05.227Z,7.54
2019-05-03T03:05:05.730Z,9.92
2019-05-03T03:06:06.345Z,9.32
2019-05-03T03:07:05.628Z,7.45
2019-05-03T03:08:05.912Z,6.78
2019-05-03T03:09:05.402Z,5.82
2019-05-03T03:10:05.266Z,5.53
2019-05-03T03:11:05.931Z,6.51
2019-05-03T03:12:05.832Z,5.71
2019-05-03T03:13:05.873Z,5.78
2019-05-03T03:14:05.519Z,5.79
2019-05-03T03:15:06.126Z,7.04
2019-05-03T03:16:02.923Z,6.01
2019-05-03T03:17:06.386Z,6.06
2019-05-03T03:18:06.134Z,6.8
2019-05-03T03:19:06.187Z,5.36
2019-05-03T03:20:05.426Z,6.75
2019-05-03T03:21:05.682Z,6.53
2019-05-03T03:22:05.657Z,4.76
2019-05-03T03:23:02.716Z,6.78
2019-05-03T03:24:06.067Z,6.31
2019-05-03T03:25:05.378Z,6.58
2019-05-03T03:26:06.024Z,6.6
2019-05-03T03:27:05.294Z,7.71
2019-05-03T03:28:05.285Z,5.85
2019-05-03T03:29:05.578Z,6.02
2019-05-03T03:30:07.314Z,6.89
2019-05-03T03:31:07.951Z,6.58
2019-05-03T03:32:08.369Z,5.05
2019-05-03T03:33:07.977Z,5.95
2019-05-03T03:34:07.511Z,7.42
2019-05-03T03:35:10.335Z,6.2
2019-05-03T03:36:31.079Z,6.4
2019-05-03T03:37:06.089Z,7.39
2019-05-03T03:38:05.512Z,12.32
2019-05-03T03:39:05.792Z,6.61
2019-05-03T03:40:05.850Z,6.61
2019-05-03T03:41:05.806Z,7.76
2019-05-03T03:42:05.119Z,7.79
2019-05-03T03:43:05.279Z,6.73
2019-05-03T03:44:02.847Z,6.73
2019-05-03T03:45:05.790Z,9.2
2019-05-03T03:46:05.370Z,8.36
2019-05-03T03:47:05.197Z,8.36
2019-05-03T03:48:05.068Z,8.76
2019-05-03T03:49:02.839Z,9.31
2019-05-03T03:50:05.694Z,9.15
2019-05-03T03:51:04.939Z,10.39
2019-05-03T03:52:06.032Z,10.88
2019-05-03T03:53:02.881Z,14.46
2019-05-03T03:54:06.015Z,9.15
2019-05-03T03:55:06.378Z,12.06
2019-05-03T03:56:05.536Z,12.72
2019-05-03T03:57:07.811Z,15.7
2019-05-03T03:58:06.166Z,13.77
2019-05-03T03:59:05.717Z,15.48
2019-05-03T04:00:05.371Z,19.61
2019-05-03T04:01:05.847Z,15.14
2019-05-03T04:02:05.883Z,15.9
2019-05-03T04:03:05.804Z,15.59
2019-05-03T04:04:05.515Z,21.46
2019-05-03T04:05:05.531Z,16.78
2019-05-03T04:06:05.689Z,16.89
2019-05-03T04:07:06.212Z,22.19
2019-05-03T04:08:05.616Z,22.06
2019-05-03T04:09:05.164Z,22.34
2019-05-03T04:10:05.522Z,20.93
2019-05-03T04:11:06.037Z,18.49
2019-05-03T04:12:05.791Z,19.47
2019-05-03T04:13:05.248Z,25.01
2019-05-03T04:14:05.365Z,21.68
2019-05-03T04:15:05.629Z,20.39
2019-05-03T04:16:05.365Z,20.02
2019-05-03T04:17:05.837Z,19.45
2019-05-03T04:18:05.585Z,22.16
2019-05-03T04:19:05.576Z,21.87
2019-05-03T04:20:05.028Z,21.89
2019-05-03T04:21:05.380Z,23.39
2019-05-03T04:22:05.635Z,26.06
2019-05-03T04:23:05.196Z,23.06
2019-05-03T04:24:02.785Z,29.39
2019-05-03T04:25:05.772Z,25.5
2019-05-03T04:26:03.036Z,25.65
2019-05-03T04:27:15.345Z,27.58
2019-05-03T04:28:05.691Z,34.4
2019-05-03T04:29:05.297Z,26.86
2019-05-03T04:30:05.716Z,33.34
2019-05-03T04:31:06.110Z,37.68
2019-05-03T04:32:05.781Z,37.68
2019-05-03T04:33:05.653Z,35.05
2019-05-03T04:34:04.993Z,27.43
2019-05-03T04:35:05.237Z,27.43
2019-05-03T04:36:05.360Z,26.61
2019-05-03T04:37:05.293Z,31.96
2019-05-03T04:38:05.467Z,31.96
2019-05-03T04:39:05.330Z,30.99
2019-05-03T04:40:06.095Z,32.69
2019-05-03T04:41:05.804Z,38.13
2019-05-03T04:42:05.933Z,38.56
2019-05-03T04:43:05.758Z,34.7
2019-05-03T04:44:06.027Z,39.03
2019-05-03T04:45:05.817Z,40.05
2019-05-03T04:46:06.179Z,36.64
2019-05-03T04:47:06.324Z,40.73
2019-05-03T04:48:05.823Z,38.69
2019-05-03T04:49:05.505Z,44.78
2019-05-03T04:50:05.550Z,44.36
2019-05-03T04:51:05.617Z,38.02
2019-05-03T04:52:05.749Z,48.05
2019-05-03T04:53:05.649Z,43.18
2019-05-03T04:54:05.350Z,42.86
2019-05-03T04:55:06.256Z,45.82
2019-05-03T04:56:05.691Z,46.35
2019-05-03T04:57:06.353Z,47.09
2019-05-03T04:58:04.754Z,48.79
2019-05-03T04:59:05.152Z,47.14
2019-05-03T05:00:05.389Z,50.28
2019-05-03T05:01:02.628Z,49.45
2019-05-03T05:02:02.679Z,49.09
2019-05-03T05:03:05.602Z,41.43
2019-05-03T05:04:05.172Z,45.8
2019-05-03T05:05:02.897Z,50.78
2019-05-03T05:06:02.750Z,54.49
2019-05-03T05:07:02.884Z,49.66
2019-05-03T05:08:02.838Z,43.39
2019-05-03T05:09:04.984Z,47.72
2019-05-03T05:10:05.142Z,47.06
2019-05-03T05:11:05.407Z,57.22
2019-05-03T05:12:05.447Z,46.75
2019-05-03T05:13:05.358Z,54.2
2019-05-03T05:14:02.898Z,52.64
2019-05-03T05:15:05.220Z,44.61
2019-05-03T05:16:02.713Z,49.11
2019-05-03T05:17:06.047Z,49.98
2019-05-03T05:18:05.652Z,50.67
2019-05-03T05:19:05.576Z,47.82
2019-05-03T05:20:05.167Z,53.32
2019-05-03T05:21:04.547Z,53.32
2019-05-03T05:22:05.850Z,56.85
2019-05-03T05:23:04.536Z,56.85
2019-05-03T05:24:05.251Z,51.21
2019-05-03T05:25:04.471Z,47.24
2019-05-03T05:26:03.118Z,47.24
2019-05-03T05:27:05.213Z,48.92
2019-05-03T05:28:04.713Z,52.05
2019-05-03T05:29:05.219Z,52.79
2019-05-03T05:30:04.550Z,53.96
2019-05-03T05:31:04.753Z,51.41
2019-05-03T05:32:05.174Z,54.64
2019-05-03T05:33:05.303Z,53.34
2019-05-03T05:34:03.159Z,51.88
2019-05-03T05:35:05.108Z,51.85
2019-05-03T05:36:04.720Z,52.32
2019-05-03T05:37:02.922Z,44.56
2019-05-03T05:38:04.617Z,52.55
2019-05-03T05:39:05.128Z,47.32
2019-05-03T05:40:05.126Z,48.39
2019-05-03T05:41:02.774Z,44.69
2019-05-03T05:42:04.363Z,50.82
2019-05-03T05:43:04.398Z,50.76
2019-05-03T05:44:05.244Z,47.64
2019-05-03T05:45:04.712Z,51.64
2019-05-03T05:46:05.206Z,46.22
2019-05-03T05:47:04.679Z,44.4
2019-05-03T05:48:05.129Z,51.38
2019-05-03T05:49:04.285Z,43.16
2019-05-03T05:50:04.967Z,46.97
2019-05-03T05:51:04.410Z,47.97
2019-05-03T05:52:04.962Z,47.15
2019-05-03T05:54:05.094Z,44.35
2019-05-03T05:54:05.203Z,45.07
2019-05-03T05:55:04.601Z,47.25
2019-05-03T05:56:05.002Z,53.22
2019-05-03T05:57:04.962Z,50.24
2019-05-03T05:58:05.869Z,45.23
2019-05-03T05:59:04.430Z,42.12
2019-05-03T06:00:04.855Z,47.07
2019-05-03T06:01:02.925Z,46.47
2019-05-03T06:02:04.823Z,50.96
2019-05-03T06:03:02.749Z,48.52
2019-05-03T06:04:02.845Z,48.61
2019-05-03T06:05:04.733Z,45.82
2019-05-03T06:06:02.747Z,49.91
2019-05-03T06:07:04.586Z,47.79
2019-05-03T06:08:04.788Z,47.73
2019-05-03T06:09:04.981Z,47.73
2019-05-03T06:10:05.229Z,45.69
2019-05-03T06:11:04.502Z,45.69
2019-05-03T06:12:04.503Z,41.12
2019-05-03T06:13:04.807Z,43.55
2019-05-03T06:14:05.003Z,41.44
2019-05-03T06:15:04.731Z,47.71
2019-05-03T06:16:05.039Z,47.04
2019-05-03T06:17:05.339Z,49.2
2019-05-03T06:18:05.587Z,42.98
2019-05-03T06:19:04.618Z,48.37
2019-05-03T06:20:03.202Z,44.88
2019-05-03T06:21:04.603Z,44.34
2019-05-03T06:22:05.004Z,44.62
2019-05-03T06:23:05.203Z,45.76
2019-05-03T06:24:04.435Z,40.65
2019-05-03T06:25:06.064Z,43.91
2019-05-03T06:26:04.956Z,51.34
2019-05-03T06:27:04.976Z,46.54
2019-05-03T06:28:15.344Z,48.12
2019-05-03T06:29:04.576Z,46.5
2019-05-03T06:30:04.674Z,43.05
2019-05-03T06:31:04.699Z,51.47
2019-05-03T06:32:03.100Z,40.1
2019-05-03T06:33:05.068Z,50.33
2019-05-03T06:34:04.499Z,51.42
2019-05-03T06:35:04.910Z,42.74
2019-05-03T06:36:04.824Z,40.09
2019-05-03T06:37:04.461Z,49.32
2019-05-03T06:38:04.801Z,45.38
2019-05-03T06:39:04.908Z,45.92
2019-05-03T06:40:05.995Z,47.56
2019-05-03T06:41:04.634Z,44.04
2019-05-03T06:42:05.054Z,41.88
2019-05-03T06:43:09.576Z,45.88
2019-05-03T06:44:04.321Z,46.12
2019-05-03T06:45:08.130Z,47.46
2019-05-03T06:46:02.802Z,48.66
2019-05-03T06:47:06.556Z,45.84
2019-05-03T06:48:05.388Z,47.41
2019-05-03T06:49:06.377Z,44.95
2019-05-03T06:50:02.879Z,53.41
2019-05-03T06:51:05.895Z,47.01
2019-05-03T06:52:05.884Z,51.19
2019-05-03T06:53:05.300Z,47.52
2019-05-03T06:54:05.014Z,55.68
2019-05-03T06:55:06.205Z,52.43
2019-05-03T06:56:04.505Z,51.08
2019-05-03T06:57:51.838Z,51.08
2019-05-03T06:58:04.957Z,50.51
2019-05-03T06:59:04.924Z,48.48
2019-05-03T07:00:05.206Z,48.48
2019-05-03T07:01:04.616Z,50.91
2019-05-03T07:02:03.058Z,43.54
2019-05-03T07:03:04.888Z,50.63
2019-05-03T07:04:04.895Z,52.14
2019-05-03T07:05:05.063Z,48.18
2019-05-03T07:06:04.492Z,54.09
2019-05-03T07:07:05.099Z,51.88
2019-05-03T07:08:05.004Z,52.69
2019-05-03T07:09:05.193Z,52.44
2019-05-03T07:10:05.023Z,50.83
2019-05-03T07:11:05.081Z,48.5
2019-05-03T07:12:04.464Z,53.73
2019-05-03T07:13:04.741Z,51.24
2019-05-03T07:14:05.039Z,51.53
2019-05-03T07:15:05.122Z,45.39
2019-05-03T07:16:04.636Z,49.62
2019-05-03T07:17:05.374Z,49.31
2019-05-03T07:18:02.884Z,51.64
2019-05-03T07:19:04.405Z,54.54
2019-05-03T07:20:04.632Z,51.42
2019-05-03T07:21:04.704Z,48.24
2019-05-03T07:22:04.969Z,49.05
2019-05-03T07:23:04.357Z,49.15
2019-05-03T07:24:05.276Z,54.79
2019-05-03T07:25:04.643Z,46.08
2019-05-03T07:26:05.329Z,48.81
2019-05-03T07:27:05.400Z,51.68
2019-05-03T07:28:04.386Z,53.04
2019-05-03T07:29:04.940Z,52.18
2019-05-03T07:30:04.817Z,49.99
2019-05-03T07:31:04.755Z,51.04
2019-05-03T07:32:05.162Z,47.28
2019-05-03T07:33:04.806Z,49.62
2019-05-03T07:34:05.171Z,50.03
2019-05-03T07:35:04.481Z,44.18
2019-05-03T07:36:05.113Z,47.94
2019-05-03T07:37:05.637Z,49.88
2019-05-03T07:38:05.338Z,50.19
2019-05-03T07:39:05.338Z,51.34
2019-05-03T07:40:04.704Z,45.41
2019-05-03T07:41:05.084Z,44.36
2019-05-03T07:42:05.173Z,47.61
2019-05-03T07:43:04.509Z,47.39
2019-05-03T07:44:05.185Z,41.58
2019-05-03T07:45:04.924Z,41.58
2019-05-03T07:46:02.728Z,47.22
2019-05-03T07:47:04.724Z,54.07
2019-05-03T07:48:04.639Z,54.07
2019-05-03T07:49:04.876Z,42.54
2019-05-03T07:50:04.970Z,47.13
2019-05-03T07:51:05.442Z,47.13
2019-05-03T07:52:05.511Z,43.22
2019-05-03T07:53:04.611Z,40.61
2019-05-03T07:54:04.654Z,46.68
2019-05-03T07:55:04.602Z,46.58
2019-05-03T07:56:05.172Z,45.45
2019-05-03T07:57:04.978Z,41.88
2019-05-03T07:58:04.595Z,43.17
2019-05-03T07:59:06.174Z,42.22
2019-05-03T08:00:04.952Z,40.3
2019-05-03T08:01:06.870Z,46.38
2019-05-03T08:02:05.361Z,44.43
2019-05-03T08:03:04.981Z,44.41
2019-05-03T08:04:05.266Z,41.72
2019-05-03T08:05:05.157Z,43.65
2019-05-03T08:06:04.718Z,41.56
2019-05-03T08:07:04.434Z,43.84
2019-05-03T08:08:04.761Z,39.76
2019-05-03T08:09:04.823Z,39.19
2019-05-03T08:10:05.336Z,40.91
2019-05-03T08:11:05.112Z,44.95
2019-05-03T08:12:04.897Z,37.04
2019-05-03T08:13:04.620Z,43.85
2019-05-03T08:14:04.932Z,40.86
2019-05-03T08:15:03.047Z,41.7
2019-05-03T08:16:02.722Z,39.25
2019-05-03T08:17:05.020Z,36.48
2019-05-03T08:18:04.773Z,40.71
2019-05-03T08:19:04.833Z,36.51
2019-05-03T08:20:05.139Z,38.66
2019-05-03T08:21:05.480Z,40.72
2019-05-03T08:22:04.737Z,37.55
2019-05-03T08:23:05.243Z,38.85
2019-05-03T08:24:04.496Z,37.03
2019-05-03T08:25:05.391Z,38.54
2019-05-03T08:26:05.498Z,37.81
2019-05-03T08:27:04.981Z,37.71
2019-05-03T08:28:05.253Z,38.86
2019-05-03T08:29:15.046Z,39.88
2019-05-03T08:30:04.627Z,37.78
2019-05-03T08:31:04.735Z,33.46
2019-05-03T08:32:04.955Z,41.04
2019-05-03T08:33:05.405Z,41.04
2019-05-03T08:34:04.784Z,42.47
2019-05-03T08:35:04.766Z,44.94
2019-05-03T08:36:04.827Z,36.54
2019-05-03T08:37:04.961Z,36.37
2019-05-03T08:38:04.816Z,38.1
2019-05-03T08:39:05.343Z,38.29
2019-05-03T08:40:02.822Z,38.29
2019-05-03T08:41:02.997Z,37.15
2019-05-03T08:42:04.753Z,42.99
2019-05-03T08:43:05.018Z,42.99
2019-05-03T08:44:02.538Z,38.28
2019-05-03T08:45:04.500Z,36.04
2019-05-03T08:46:04.512Z,42.41
2019-05-03T08:47:05.058Z,45.72
2019-05-03T08:48:05.494Z,36.59
2019-05-03T08:49:05.115Z,25.78
2019-05-03T08:50:05.542Z,24.44
2019-05-03T08:51:04.502Z,22.84
2019-05-03T08:52:05.229Z,17.25
2019-05-03T08:53:05.043Z,22.11
2019-05-03T08:54:04.712Z,20.25
2019-05-03T08:55:05.198Z,19.64
2019-05-03T08:56:05.249Z,18.34
2019-05-03T08:57:03.464Z,20.95
2019-05-03T08:58:05.158Z,22.88
2019-05-03T08:59:04.643Z,24.19
2019-05-03T09:00:05.136Z,29.2
2019-05-03T09:01:05.289Z,28.78
2019-05-03T09:02:13.591Z,28.07
2019-05-03T09:03:05.115Z,29.31
2019-05-03T09:04:04.933Z,31.97
2019-05-03T09:05:02.626Z,28.87
2019-05-03T09:06:04.617Z,32.6
2019-05-03T09:07:02.617Z,33.92
2019-05-03T09:08:05.393Z,33.46
2019-05-03T09:09:04.621Z,32.71
2019-05-03T09:10:05.192Z,31.29
2019-05-03T09:11:04.899Z,35.04
2019-05-03T09:12:04.638Z,35.34
2019-05-03T09:13:06.135Z,33.36
2019-05-03T09:14:04.426Z,34.28
2019-05-03T09:15:04.682Z,31.67
2019-05-03T09:16:05.482Z,33.15
2019-05-03T09:17:04.702Z,37.68
2019-05-03T09:18:04.770Z,35.96
2019-05-03T09:19:05.497Z,41.41
2019-05-03T09:20:05.076Z,34.39
2019-05-03T09:21:05.104Z,39.11
2019-05-03T09:22:05.900Z,38.15
2019-05-03T09:23:05.297Z,39.78
2019-05-03T09:24:04.657Z,37.79
2019-05-03T09:25:04.921Z,34.13
2019-05-03T09:26:04.615Z,36.19
2019-05-03T09:27:04.993Z,39.22
2019-05-03T09:28:04.680Z,39.22
2019-05-03T09:29:05.367Z,33.29
2019-05-03T09:30:05.016Z,40.05
2019-05-03T09:31:04.626Z,40.05
2019-05-03T09:32:05.073Z,34.84
2019-05-03T09:34:06.142Z,37.28
2019-05-03T09:34:35.171Z,37.28
2019-05-03T09:35:02.928Z,36.62
2019-05-03T09:36:05.160Z,35.01
2019-05-03T09:37:04.752Z,35.14
2019-05-03T09:38:02.875Z,32.04
2019-05-03T09:39:04.937Z,32.12
2019-05-03T09:40:04.476Z,37.68
2019-05-03T09:41:05.009Z,37.31
2019-05-03T09:42:04.669Z,35.47
2019-05-03T09:43:04.471Z,39.86
2019-05-03T09:44:04.528Z,42.79
2019-05-03T09:45:04.911Z,35.29
2019-05-03T09:46:05.109Z,33.33
2019-05-03T09:47:05.384Z,36.37
2019-05-03T09:48:02.622Z,33.15
2019-05-03T09:49:12.734Z,33.02
2019-05-03T09:50:04.756Z,33.84
2019-05-03T09:51:05.031Z,37.24
2019-05-03T09:52:05.530Z,32.72
2019-05-03T09:53:05.192Z,31.22
2019-05-03T09:54:05.293Z,33.52
2019-05-03T09:55:05.074Z,31.52
2019-05-03T09:56:05.000Z,34.06
2019-05-03T09:57:02.805Z,32.85
2019-05-03T09:58:05.260Z,32.28
2019-05-03T09:59:05.216Z,29.71
2019-05-03T10:00:04.872Z,33.99
2019-05-03T10:01:05.158Z,31.7
2019-05-03T10:02:04.704Z,28.58
2019-05-03T10:03:02.749Z,33.75
2019-05-03T10:04:02.875Z,33.59
2019-05-03T10:05:03.148Z,34.64
2019-05-03T10:06:02.882Z,34.02
2019-05-03T10:07:02.794Z,31.73
2019-05-03T10:08:05.063Z,30.99
2019-05-03T10:09:05.264Z,37.74
2019-05-03T10:10:05.702Z,30.86
2019-05-03T10:11:05.453Z,29.94
2019-05-03T10:12:05.350Z,32.36
2019-05-03T10:13:12.924Z,31.05
2019-05-03T10:14:04.659Z,31.08
2019-05-03T10:15:06.325Z,33.11
2019-05-03T10:16:05.740Z,37.22
2019-05-03T10:17:05.062Z,37.22
2019-05-03T10:18:10.144Z,34.62
2019-05-03T10:19:03.098Z,33.98
2019-05-03T10:20:03.519Z,32.8
2019-05-03T10:21:05.065Z,30.88
2019-05-03T10:22:04.547Z,31.24
2019-05-03T10:23:05.024Z,30.56
2019-05-03T10:24:03.130Z,26.34
2019-05-03T10:25:04.816Z,27.56
2019-05-03T10:26:05.049Z,27.96
2019-05-03T10:27:02.863Z,31.74
2019-05-03T10:28:02.918Z,32.72
2019-05-03T10:29:05.176Z,27.71
2019-05-03T10:30:10.372Z,31.23
2019-05-03T10:31:07.010Z,27.44
2019-05-03T10:32:03.024Z,26.74
2019-05-03T10:33:03.024Z,30.92
2019-05-03T10:34:02.807Z,26.72
2019-05-03T10:35:05.656Z,28.08
2019-05-03T10:36:05.458Z,28.26
2019-05-03T10:37:04.984Z,27.63
2019-05-03T10:38:05.759Z,26.8
2019-05-03T10:39:04.767Z,29.67
2019-05-03T10:40:05.733Z,26.11
2019-05-03T10:41:02.791Z,30.06
2019-05-03T10:42:04.752Z,29.96
2019-05-03T10:43:04.796Z,24.88
2019-05-03T10:44:05.817Z,26.94
2019-05-03T10:45:04.601Z,26.79
2019-05-03T10:46:04.867Z,26.11
2019-05-03T10:47:05.443Z,28.64
2019-05-03T10:48:04.735Z,27.44
2019-05-03T10:49:05.509Z,25.74
2019-05-03T10:50:04.660Z,30.21
2019-05-03T10:51:04.672Z,29.08
2019-05-03T10:52:05.441Z,26.94
2019-05-03T10:53:05.172Z,28.24
2019-05-03T10:54:05.189Z,25.98
2019-05-03T10:55:05.341Z,28.2
2019-05-03T10:56:05.066Z,29.58
2019-05-03T10:57:05.222Z,31.54
2019-05-03T10:58:05.204Z,31.93
2019-05-03T10:59:03.006Z,26.34
2019-05-03T11:00:04.887Z,29.29
2019-05-03T11:01:04.931Z,29.06
2019-05-03T11:02:03.234Z,29.36
2019-05-03T11:03:04.815Z,25.7
2019-05-03T11:04:04.800Z,28.16
2019-05-03T11:05:05.057Z,28.16
2019-05-03T11:06:03.048Z,26.44
2019-05-03T11:07:05.290Z,25.29
2019-05-03T11:08:04.974Z,25.29
2019-05-03T11:09:05.457Z,28.57
2019-05-03T11:10:05.159Z,26.59
2019-05-03T11:11:02.823Z,26.59
2019-05-03T11:12:05.196Z,24.71
2019-05-03T11:13:02.938Z,31.19
2019-05-03T11:14:05.383Z,31.84
2019-05-03T11:15:02.712Z,28.22
2019-05-03T11:16:05.499Z,27.18
2019-05-03T11:17:02.832Z,29.6
2019-05-03T11:18:02.806Z,29.97
2019-05-03T11:19:02.819Z,28.75
2019-05-03T11:20:05.249Z,30.15
2019-05-03T11:21:05.136Z,30.93
2019-05-03T11:22:05.391Z,31.28
2019-05-03T11:23:05.845Z,34.62
2019-05-03T11:24:03.602Z,26.56
2019-05-03T11:25:05.037Z,32.03
2019-05-03T11:26:03.565Z,29.35
2019-05-03T11:27:03.657Z,27.92
2019-05-03T11:28:04.846Z,26.72
2019-05-03T11:29:05.128Z,24.22
2019-05-03T11:30:04.900Z,23.62
2019-05-03T11:31:05.016Z,30.35
2019-05-03T11:32:08.175Z,28.75
2019-05-03T11:33:03.188Z,29.86
2019-05-03T11:34:03.337Z,25.08
2019-05-03T11:35:04.547Z,25.81
2019-05-03T11:36:04.374Z,30.31
2019-05-03T11:37:04.696Z,24.68
2019-05-03T11:38:05.295Z,27.34
2019-05-03T11:39:04.889Z,26.85
2019-05-03T11:40:05.063Z,23.25
2019-05-03T11:41:04.841Z,25.19
2019-05-03T11:42:04.314Z,23.12
2019-05-03T11:43:04.618Z,24.18
2019-05-03T11:44:03.024Z,22.79
2019-05-03T11:45:03.220Z,25.66
2019-05-03T11:46:02.822Z,22.11
2019-05-03T11:47:02.936Z,24.32
2019-05-03T11:48:03.092Z,22.66
2019-05-03T11:49:02.967Z,24.33
2019-05-03T11:50:02.748Z,27.55
2019-05-03T11:51:02.611Z,24.98
2019-05-03T11:52:02.942Z,26.45
2019-05-03T11:53:05.106Z,26.45
2019-05-03T11:54:05.832Z,25.47
2019-05-03T11:55:10.383Z,28.11
2019-05-03T11:56:02.646Z,28.11
2019-05-03T11:57:05.048Z,26.36
2019-05-03T11:58:02.938Z,24.59
2019-05-03T11:59:05.268Z,22.97
2019-05-03T12:00:05.323Z,24.07
2019-05-03T12:01:12.606Z,24.88
2019-05-03T12:02:04.764Z,23.21
2019-05-03T12:03:04.941Z,23.87
2019-05-03T12:04:04.945Z,23.64
2019-05-03T12:05:04.969Z,21.7
2019-05-03T12:06:04.928Z,19.81
2019-05-03T12:07:05.794Z,24.45
2019-05-03T12:08:02.819Z,25.75
2019-05-03T12:09:05.549Z,21.48
2019-05-03T12:10:13.312Z,24.25
2019-05-03T12:11:03.162Z,23.64
2019-05-03T12:12:04.677Z,24.15
2019-05-03T12:13:05.036Z,23.49
2019-05-03T12:14:04.935Z,22.52
2019-05-03T12:15:04.321Z,24.78
2019-05-03T12:16:14.207Z,22.3
2019-05-03T12:17:18.678Z,21.61
2019-05-03T12:18:05.393Z,20.15
2019-05-03T12:19:16.047Z,23.26
2019-05-03T12:20:04.348Z,22.42
2019-05-03T12:21:04.087Z,24.34
2019-05-03T12:22:05.946Z,22.75
2019-05-03T12:23:05.495Z,20.81
2019-05-03T12:24:03.645Z,23.48
2019-05-03T12:25:09.716Z,19.55
2019-05-03T12:26:08.446Z,22.41
2019-05-03T12:27:04.710Z,20.55
2019-05-03T12:28:05.795Z,23.02
2019-05-03T12:29:04.568Z,22.79
2019-05-03T12:30:04.967Z,19.54
2019-05-03T12:31:04.842Z,19.66
2019-05-03T12:32:05.101Z,21.81
2019-05-03T12:33:05.668Z,20.81
2019-05-03T12:34:05.808Z,19.02
2019-05-03T12:35:05.946Z,22.06
2019-05-03T12:36:05.322Z,20.3
2019-05-03T12:37:05.106Z,19.53
2019-05-03T12:38:05.419Z,18.42
2019-05-03T12:39:05.534Z,23.66
2019-05-03T12:40:05.385Z,17.04
2019-05-03T12:41:05.337Z,17.04
2019-05-03T12:42:03.184Z,20.41
2019-05-03T12:43:02.659Z,22.21
2019-05-03T12:44:04.598Z,22.21
2019-05-03T12:45:04.514Z,18.94
2019-05-03T12:46:05.076Z,18.31
2019-05-03T12:47:05.568Z,19.02
2019-05-03T12:48:04.711Z,19.02
2019-05-03T12:49:05.215Z,19.55
2019-05-03T12:50:05.255Z,16.29
2019-05-03T12:51:06.002Z,16.29
2019-05-03T12:52:05.207Z,23.84
2019-05-03T12:53:04.721Z,20.26
2019-05-03T12:54:04.822Z,19.13
2019-05-03T12:55:04.531Z,20.51
2019-05-03T12:56:09.680Z,22.54
2019-05-03T12:57:05.001Z,19.16
2019-05-03T12:58:03.103Z,21.35
2019-05-03T12:59:05.553Z,22.93
2019-05-03T13:00:05.003Z,21.2
2019-05-03T13:01:04.904Z,20.79